Terminal Aerodrome Forecast
Issued by NWS Tuscon, AZ

Home | Current Version | Previous Version | Text Only | Print | Product List | Glossary On
Versions: 1 2 3 4 5 6 7 8 9 10 11 12 13 14 15 16 17 18
000
FTUS45 KTWC 060520
TAFDUG
TAF
KDUG 060520Z 0606/0706 29006KT P6SM SCT070 OVC100
     FM060900 15004KT P6SM SCT070 BKN150
     FM061800 29011KT P6SM VCSH SCT070 BKN100
     FM070300 35006KT P6SM SCT080 BKN120=

USA.gov is the U.S. government's official web portal to all federal, state and local government web resources and services.